sensor_id;sensor_type;location;lat;lon;timestamp;temperature;humidity
31837;DHT22;18401;49.344;6.240;2023-04-01T00:00:56;9.30;99.90
31837;DHT22;18401;49.344;6.240;2023-04-01T00:03:23;9.40;99.90
31837;DHT22;18401;49.344;6.240;2023-04-01T00:05:49;9.40;99.90
31837;DHT22;18401;49.344;6.240;2023-04-01T00:08:15;9.50;99.90
31837;DHT22;18401;49.344;6.240;2023-04-01T00:10:41;9.50;99.90
31837;DHT22;18401;49.344;6.240;2023-04-01T00:13:07;9.40;99.90
31837;DHT22;18401;49.344;6.240;2023-04-01T00:15:33;9.40;99.90
31837;DHT22;18401;49.344;6.240;2023-04-01T00:17:59;9.20;99.90
31837;DHT22;18401;49.344;6.240;2023-04-01T00:20:25;9.10;99.90
31837;DHT22;18401;49.344;6.240;2023-04-01T00:22:51;9.10;99.90
31837;DHT22;18401;49.344;6.240;2023-04-01T00:25:17;9.20;99.90
31837;DHT22;18401;49.344;6.240;2023-04-01T00:27:42;9.20;99.90
31837;DHT22;18401;49.344;6.240;2023-04-01T00:30:09;9.30;99.90
31837;DHT22;18401;49.344;6.240;2023-04-01T00:32:35;9.40;99.90
31837;DHT22;18401;49.344;6.240;2023-04-01T00:35:01;9.50;99.90
31837;DHT22;18401;49.344;6.240;2023-04-01T00:37:28;9.60;99.90
31837;DHT22;18401;49.344;6.240;2023-04-01T00:39:53;9.50;99.90
31837;DHT22;18401;49.344;6.240;2023-04-01T00:42:19;9.50;99.90
31837;DHT22;18401;49.344;6.240;2023-04-01T00:44:50;9.40;99.90
31837;DHT22;18401;49.344;6.240;2023-04-01T00:47:17;9.50;99.90
31837;DHT22;18401;49.344;6.240;2023-04-01T00:49:46;9.30;99.90
31837;DHT22;18401;49.344;6.240;2023-04-01T00:52:17;9.20;99.90
31837;DHT22;18401;49.344;6.240;2023-04-01T00:54:46;9.00;99.90
31837;DHT22;18401;49.344;6.240;2023-04-01T00:57:17;9.10;99.90
31837;DHT22;18401;49.344;6.240;2023-04-01T00:59:46;9.20;99.90
31837;DHT22;18401;49.344;6.240;2023-04-01T01:02:14;9.20;99.90
31837;DHT22;18401;49.344;6.240;2023-04-01T01:04:40;9.10;99.90
31837;DHT22;18401;49.344;6.240;2023-04-01T01:08:13;9.00;99.90
31837;DHT22;18401;49.344;6.240;2023-04-01T01:10:32;9.00;99.90
31837;DHT22;18401;49.344;6.240;2023-04-01T01:13:22;9.00;99.90
31837;DHT22;18401;49.344;6.240;2023-04-01T01:15:56;8.90;99.90
31837;DHT22;18401;49.344;6.240;2023-04-01T01:18:33;9.00;99.90
31837;DHT22;18401;49.344;6.240;2023-04-01T01:37:24;9.10;99.90
31837;DHT22;18401;49.344;6.240;2023-04-01T01:39:56;9.10;99.90
31837;DHT22;18401;49.344;6.240;2023-04-01T01:42:25;9.10;99.90
31837;DHT22;18401;49.344;6.240;2023-04-01T01:44:52;9.20;99.90
31837;DHT22;18401;49.344;6.240;2023-04-01T01:47:19;9.30;99.90
31837;DHT22;18401;49.344;6.240;2023-04-01T01:49:46;9.20;99.90
31837;DHT22;18401;49.344;6.240;2023-04-01T01:52:13;9.10;99.90
31837;DHT22;18401;49.344;6.240;2023-04-01T01:54:55;9.00;99.90
31837;DHT22;18401;49.344;6.240;2023-04-01T01:57:34;8.90;99.90
31837;DHT22;18401;49.344;6.240;2023-04-01T02:00:06;9.00;99.90
31837;DHT22;18401;49.344;6.240;2023-04-01T02:02:40;9.10;99.90
31837;DHT22;18401;49.344;6.240;2023-04-01T02:05:09;9.10;99.90
31837;DHT22;18401;49.344;6.240;2023-04-01T02:07:36;9.00;99.90
31837;DHT22;18401;49.344;6.240;2023-04-01T02:10:04;9.20;99.90
31837;DHT22;18401;49.344;6.240;2023-04-01T02:12:30;9.20;99.90
31837;DHT22;18401;49.344;6.240;2023-04-01T02:15:07;9.20;99.90
31837;DHT22;18401;49.344;6.240;2023-04-01T02:17:39;9.30;99.90
31837;DHT22;18401;49.344;6.240;2023-04-01T02:20:26;9.30;99.90
31837;DHT22;18401;49.344;6.240;2023-04-01T02:22:54;9.30;99.90
31837;DHT22;18401;49.344;6.240;2023-04-01T02:25:25;9.40;99.90
31837;DHT22;18401;49.344;6.240;2023-04-01T02:27:53;9.40;99.90
31837;DHT22;18401;49.344;6.240;2023-04-01T02:30:19;9.40;99.90
31837;DHT22;18401;49.344;6.240;2023-04-01T02:32:46;9.40;99.90
31837;DHT22;18401;49.344;6.240;2023-04-01T02:35:14;9.30;99.90
31837;DHT22;18401;49.344;6.240;2023-04-01T02:37:42;9.30;99.90
31837;DHT22;18401;49.344;6.240;2023-04-01T02:40:13;9.20;99.90
31837;DHT22;18401;49.344;6.240;2023-04-01T02:42:39;9.10;99.90
31837;DHT22;18401;49.344;6.240;2023-04-01T02:45:05;9.00;99.90
31837;DHT22;18401;49.344;6.240;2023-04-01T02:47:32;9.00;99.90
31837;DHT22;18401;49.344;6.240;2023-04-01T02:49:57;8.90;99.90
31837;DHT22;18401;49.344;6.240;2023-04-01T02:52:28;8.90;99.90
31837;DHT22;18401;49.344;6.240;2023-04-01T02:54:55;8.90;99.90
31837;DHT22;18401;49.344;6.240;2023-04-01T02:57:21;8.70;99.90
31837;DHT22;18401;49.344;6.240;2023-04-01T02:59:47;8.60;99.90
31837;DHT22;18401;49.344;6.240;2023-04-01T03:02:13;8.60;99.90
31837;DHT22;18401;49.344;6.240;2023-04-01T03:04:39;8.60;99.90
31837;DHT22;18401;49.344;6.240;2023-04-01T03:07:05;8.60;99.90
31837;DHT22;18401;49.344;6.240;2023-04-01T03:09:31;8.60;99.90
31837;DHT22;18401;49.344;6.240;2023-04-01T03:11:57;8.60;99.90
31837;DHT22;18401;49.344;6.240;2023-04-01T03:14:22;8.60;99.90
31837;DHT22;18401;49.344;6.240;2023-04-01T03:16:48;8.60;99.90
31837;DHT22;18401;49.344;6.240;2023-04-01T03:19:14;8.50;99.90
31837;DHT22;18401;49.344;6.240;2023-04-01T03:21:40;8.40;99.90
31837;DHT22;18401;49.344;6.240;2023-04-01T03:24:06;8.50;99.90
31837;DHT22;18401;49.344;6.240;2023-04-01T03:26:32;8.50;99.90
31837;DHT22;18401;49.344;6.240;2023-04-01T03:28:58;8.40;99.90
31837;DHT22;18401;49.344;6.240;2023-04-01T03:31:24;8.40;99.90
31837;DHT22;18401;49.344;6.240;2023-04-01T03:33:50;8.50;99.90
31837;DHT22;18401;49.344;6.240;2023-04-01T03:36:16;8.50;99.90
31837;DHT22;18401;49.344;6.240;2023-04-01T03:38:42;8.40;99.90
31837;DHT22;18401;49.344;6.240;2023-04-01T03:41:12;8.40;99.90
31837;DHT22;18401;49.344;6.240;2023-04-01T03:43:37;8.30;99.90
31837;DHT22;18401;49.344;6.240;2023-04-01T03:46:03;8.30;99.90
31837;DHT22;18401;49.344;6.240;2023-04-01T03:48:29;8.40;99.90
31837;DHT22;18401;49.344;6.240;2023-04-01T03:50:54;8.40;99.90
31837;DHT22;18401;49.344;6.240;2023-04-01T03:53:20;8.40;99.90
31837;DHT22;18401;49.344;6.240;2023-04-01T03:55:47;8.30;99.90
31837;DHT22;18401;49.344;6.240;2023-04-01T03:58:13;8.30;99.90
31837;DHT22;18401;49.344;6.240;2023-04-01T04:00:39;8.40;99.90
31837;DHT22;18401;49.344;6.240;2023-04-01T04:03:06;8.30;99.90
31837;DHT22;18401;49.344;6.240;2023-04-01T04:05:32;8.40;99.90
31837;DHT22;18401;49.344;6.240;2023-04-01T04:07:58;8.30;99.90
31837;DHT22;18401;49.344;6.240;2023-04-01T04:10:24;8.30;99.90
31837;DHT22;18401;49.344;6.240;2023-04-01T04:12:50;8.30;99.90
31837;DHT22;18401;49.344;6.240;2023-04-01T04:15:17;8.30;99.90
31837;DHT22;18401;49.344;6.240;2023-04-01T04:17:44;8.30;99.90
31837;DHT22;18401;49.344;6.240;2023-04-01T04:20:10;8.30;99.90
31837;DHT22;18401;49.344;6.240;2023-04-01T04:22:36;8.30;99.90
31837;DHT22;18401;49.344;6.240;2023-04-01T04:25:02;8.30;99.90
31837;DHT22;18401;49.344;6.240;2023-04-01T04:27:28;8.30;99.90
31837;DHT22;18401;49.344;6.240;2023-04-01T04:29:53;8.40;99.90
31837;DHT22;18401;49.344;6.240;2023-04-01T04:32:19;8.40;99.90
31837;DHT22;18401;49.344;6.240;2023-04-01T04:34:45;8.40;99.90
31837;DHT22;18401;49.344;6.240;2023-04-01T04:37:11;8.30;99.90
31837;DHT22;18401;49.344;6.240;2023-04-01T04:39:37;8.30;99.90
31837;DHT22;18401;49.344;6.240;2023-04-01T04:42:02;8.30;99.90
31837;DHT22;18401;49.344;6.240;2023-04-01T04:44:28;8.30;99.90
31837;DHT22;18401;49.344;6.240;2023-04-01T04:46:54;8.30;99.90
31837;DHT22;18401;49.344;6.240;2023-04-01T04:49:20;8.30;99.90
31837;DHT22;18401;49.344;6.240;2023-04-01T04:51:46;8.30;99.90
31837;DHT22;18401;49.344;6.240;2023-04-01T04:54:11;8.30;99.90
31837;DHT22;18401;49.344;6.240;2023-04-01T04:56:37;8.30;99.90
31837;DHT22;18401;49.344;6.240;2023-04-01T04:59:02;8.30;99.90
31837;DHT22;18401;49.344;6.240;2023-04-01T05:01:28;8.30;99.90
31837;DHT22;18401;49.344;6.240;2023-04-01T05:03:54;8.40;99.90
31837;DHT22;18401;49.344;6.240;2023-04-01T05:06:20;8.40;99.90
31837;DHT22;18401;49.344;6.240;2023-04-01T05:08:46;8.40;99.90
31837;DHT22;18401;49.344;6.240;2023-04-01T05:11:18;8.40;99.90
31837;DHT22;18401;49.344;6.240;2023-04-01T05:13:44;8.30;99.90
31837;DHT22;18401;49.344;6.240;2023-04-01T05:16:12;8.40;99.90
31837;DHT22;18401;49.344;6.240;2023-04-01T05:18:39;8.40;99.90
31837;DHT22;18401;49.344;6.240;2023-04-01T05:21:06;8.40;99.90
31837;DHT22;18401;49.344;6.240;2023-04-01T05:23:32;8.40;99.90
31837;DHT22;18401;49.344;6.240;2023-04-01T05:25:58;8.50;99.90
31837;DHT22;18401;49.344;6.240;2023-04-01T05:28:27;8.50;99.90
31837;DHT22;18401;49.344;6.240;2023-04-01T05:30:53;8.40;99.90
31837;DHT22;18401;49.344;6.240;2023-04-01T05:33:18;8.50;99.90
31837;DHT22;18401;49.344;6.240;2023-04-01T05:35:44;8.50;99.90
31837;DHT22;18401;49.344;6.240;2023-04-01T05:38:10;8.50;99.90
31837;DHT22;18401;49.344;6.240;2023-04-01T05:40:35;8.40;99.90
31837;DHT22;18401;49.344;6.240;2023-04-01T05:43:01;8.40;99.90
31837;DHT22;18401;49.344;6.240;2023-04-01T05:45:27;8.50;99.90
31837;DHT22;18401;49.344;6.240;2023-04-01T05:47:53;8.60;99.90
31837;DHT22;18401;49.344;6.240;2023-04-01T05:50:19;8.50;99.90
31837;DHT22;18401;49.344;6.240;2023-04-01T05:52:45;8.60;99.90
31837;DHT22;18401;49.344;6.240;2023-04-01T05:55:11;8.60;99.90
31837;DHT22;18401;49.344;6.240;2023-04-01T05:57:37;8.60;99.90
31837;DHT22;18401;49.344;6.240;2023-04-01T06:00:04;8.60;99.90
31837;DHT22;18401;49.344;6.240;2023-04-01T06:02:30;8.60;99.90
31837;DHT22;18401;49.344;6.240;2023-04-01T06:07:37;8.60;99.90
31837;DHT22;18401;49.344;6.240;2023-04-01T06:10:13;8.60;99.90
31837;DHT22;18401;49.344;6.240;2023-04-01T06:12:52;8.70;99.90
31837;DHT22;18401;49.344;6.240;2023-04-01T06:15:40;8.70;99.90
31837;DHT22;18401;49.344;6.240;2023-04-01T06:20:55;8.70;99.90
31837;DHT22;18401;49.344;6.240;2023-04-01T06:23:38;8.80;99.90
31837;DHT22;18401;49.344;6.240;2023-04-01T06:31:21;8.80;99.90
31837;DHT22;18401;49.344;6.240;2023-04-01T06:34:17;8.80;99.90
31837;DHT22;18401;49.344;6.240;2023-04-01T06:37:01;8.80;99.90
31837;DHT22;18401;49.344;6.240;2023-04-01T06:45:08;8.80;99.90
31837;DHT22;18401;49.344;6.240;2023-04-01T06:50:24;8.80;99.90
31837;DHT22;18401;49.344;6.240;2023-04-01T06:52:58;8.80;99.90
31837;DHT22;18401;49.344;6.240;2023-04-01T06:58:16;8.90;99.90
31837;DHT22;18401;49.344;6.240;2023-04-01T07:00:46;8.90;99.90
31837;DHT22;18401;49.344;6.240;2023-04-01T07:03:39;8.90;99.90
31837;DHT22;18401;49.344;6.240;2023-04-01T07:06:35;8.90;99.90
31837;DHT22;18401;49.344;6.240;2023-04-01T07:09:06;9.00;99.90
31837;DHT22;18401;49.344;6.240;2023-04-01T07:11:36;9.00;99.90
31837;DHT22;18401;49.344;6.240;2023-04-01T07:14:06;9.00;99.90
31837;DHT22;18401;49.344;6.240;2023-04-01T07:19:32;9.10;99.90
31837;DHT22;18401;49.344;6.240;2023-04-01T07:22:23;9.00;99.90
31837;DHT22;18401;49.344;6.240;2023-04-01T07:24:53;9.10;99.90
31837;DHT22;18401;49.344;6.240;2023-04-01T07:27:19;9.00;99.90
31837;DHT22;18401;49.344;6.240;2023-04-01T07:29:45;9.00;99.90
31837;DHT22;18401;49.344;6.240;2023-04-01T07:32:30;9.10;99.90
31837;DHT22;18401;49.344;6.240;2023-04-01T07:40:39;9.00;99.90
31837;DHT22;18401;49.344;6.240;2023-04-01T07:53:53;9.10;99.90
31837;DHT22;18401;49.344;6.240;2023-04-01T07:56:55;9.20;99.90
31837;DHT22;18401;49.344;6.240;2023-04-01T07:59:37;9.20;99.90
31837;DHT22;18401;49.344;6.240;2023-04-01T08:02:28;9.30;99.90
31837;DHT22;18401;49.344;6.240;2023-04-01T08:05:12;9.30;99.90
31837;DHT22;18401;49.344;6.240;2023-04-01T08:21:42;9.30;99.90
31837;DHT22;18401;49.344;6.240;2023-04-01T08:24:30;9.30;99.90
31837;DHT22;18401;49.344;6.240;2023-04-01T08:27:00;9.30;99.90
31837;DHT22;18401;49.344;6.240;2023-04-01T08:29:41;9.40;99.90
31837;DHT22;18401;49.344;6.240;2023-04-01T08:32:17;9.40;99.90
31837;DHT22;18401;49.344;6.240;2023-04-01T08:34:47;9.40;99.90
31837;DHT22;18401;49.344;6.240;2023-04-01T08:37:24;9.50;99.90
31837;DHT22;18401;49.344;6.240;2023-04-01T08:39:58;9.50;99.90
31837;DHT22;18401;49.344;6.240;2023-04-01T08:42:31;9.50;99.90
31837;DHT22;18401;49.344;6.240;2023-04-01T09:12:51;9.60;99.90
31837;DHT22;18401;49.344;6.240;2023-04-01T09:18:05;9.70;99.90
31837;DHT22;18401;49.344;6.240;2023-04-01T09:29:49;9.90;99.90
31837;DHT22;18401;49.344;6.240;2023-04-01T09:40:21;9.90;99.90
31837;DHT22;18401;49.344;6.240;2023-04-01T10:05:12;10.20;99.90
31837;DHT22;18401;49.344;6.240;2023-04-01T10:10:38;10.00;99.90
31837;DHT22;18401;49.344;6.240;2023-04-01T10:34:04;10.10;99.90
31837;DHT22;18401;49.344;6.240;2023-04-01T10:39:03;10.20;99.90
31837;DHT22;18401;49.344;6.240;2023-04-01T10:53:15;10.30;99.90
31837;DHT22;18401;49.344;6.240;2023-04-01T11:01:48;10.70;99.90
31837;DHT22;18401;49.344;6.240;2023-04-01T11:04:34;10.70;99.90
31837;DHT22;18401;49.344;6.240;2023-04-01T11:10:37;10.70;99.90
31837;DHT22;18401;49.344;6.240;2023-04-01T11:27:57;10.30;99.90
31837;DHT22;18401;49.344;6.240;2023-04-01T11:33:28;10.20;99.90
31837;DHT22;18401;49.344;6.240;2023-04-01T11:36:24;10.10;99.90
31837;DHT22;18401;49.344;6.240;2023-04-01T11:40:06;10.20;99.90
31837;DHT22;18401;49.344;6.240;2023-04-01T11:58:49;10.30;99.90
31837;DHT22;18401;49.344;6.240;2023-04-01T12:01:52;10.30;99.90
31837;DHT22;18401;49.344;6.240;2023-04-01T12:24:25;10.80;99.90
31837;DHT22;18401;49.344;6.240;2023-04-01T12:35:22;10.60;99.90
31837;DHT22;18401;49.344;6.240;2023-04-01T12:38:10;10.80;99.90
31837;DHT22;18401;49.344;6.240;2023-04-01T12:52:09;10.90;99.90
31837;DHT22;18401;49.344;6.240;2023-04-01T12:57:29;10.90;99.90
31837;DHT22;18401;49.344;6.240;2023-04-01T13:05:56;10.90;99.90
31837;DHT22;18401;49.344;6.240;2023-04-01T13:11:36;10.80;99.90
31837;DHT22;18401;49.344;6.240;2023-04-01T13:14:08;10.60;99.90
31837;DHT22;18401;49.344;6.240;2023-04-01T13:16:45;10.60;99.90
31837;DHT22;18401;49.344;6.240;2023-04-01T13:19:17;10.70;99.90
31837;DHT22;18401;49.344;6.240;2023-04-01T13:24:52;10.40;99.90
31837;DHT22;18401;49.344;6.240;2023-04-01T13:32:50;10.60;99.90
31837;DHT22;18401;49.344;6.240;2023-04-01T13:40:57;10.60;99.90
31837;DHT22;18401;49.344;6.240;2023-04-01T13:54:45;10.60;99.90
31837;DHT22;18401;49.344;6.240;2023-04-01T14:06:18;10.60;99.90
31837;DHT22;18401;49.344;6.240;2023-04-01T14:19:31;10.40;99.90
31837;DHT22;18401;49.344;6.240;2023-04-01T14:36:35;10.20;99.90
31837;DHT22;18401;49.344;6.240;2023-04-01T14:44:52;10.10;99.90
31837;DHT22;18401;49.344;6.240;2023-04-01T14:47:47;10.00;99.90
31837;DHT22;18401;49.344;6.240;2023-04-01T14:52:57;9.90;99.90
31837;DHT22;18401;49.344;6.240;2023-04-01T14:55:34;9.90;99.90
31837;DHT22;18401;49.344;6.240;2023-04-01T15:06:49;10.00;99.90
31837;DHT22;18401;49.344;6.240;2023-04-01T15:14:35;10.20;99.90
31837;DHT22;18401;49.344;6.240;2023-04-01T15:25:47;10.10;99.90
31837;DHT22;18401;49.344;6.240;2023-04-01T15:28:49;10.00;99.90
31837;DHT22;18401;49.344;6.240;2023-04-01T15:34:32;10.20;99.90
31837;DHT22;18401;49.344;6.240;2023-04-01T15:39:52;10.30;99.90
31837;DHT22;18401;49.344;6.240;2023-04-01T15:51:01;9.80;99.90
31837;DHT22;18401;49.344;6.240;2023-04-01T15:53:37;9.80;99.90
31837;DHT22;18401;49.344;6.240;2023-04-01T15:56:21;9.80;99.90
31837;DHT22;18401;49.344;6.240;2023-04-01T16:04:36;10.40;99.90
31837;DHT22;18401;49.344;6.240;2023-04-01T16:24:03;10.10;99.90
31837;DHT22;18401;49.344;6.240;2023-04-01T16:26:36;10.10;99.90
31837;DHT22;18401;49.344;6.240;2023-04-01T16:35:21;10.00;99.90
31837;DHT22;18401;49.344;6.240;2023-04-01T16:40:58;9.90;99.90
31837;DHT22;18401;49.344;6.240;2023-04-01T16:48:55;9.80;99.90
31837;DHT22;18401;49.344;6.240;2023-04-01T16:51:23;9.90;99.90
31837;DHT22;18401;49.344;6.240;2023-04-01T17:04:38;9.80;99.90
31837;DHT22;18401;49.344;6.240;2023-04-01T17:09:59;9.70;99.90
31837;DHT22;18401;49.344;6.240;2023-04-01T17:18:49;9.70;99.90
31837;DHT22;18401;49.344;6.240;2023-04-01T17:30:08;9.60;99.90
31837;DHT22;18401;49.344;6.240;2023-04-01T17:32:54;9.60;99.90
31837;DHT22;18401;49.344;6.240;2023-04-01T17:35:35;9.60;99.90
31837;DHT22;18401;49.344;6.240;2023-04-01T17:43:58;9.50;99.90
31837;DHT22;18401;49.344;6.240;2023-04-01T17:52:00;9.40;99.90
31837;DHT22;18401;49.344;6.240;2023-04-01T17:55:15;9.30;99.90
31837;DHT22;18401;49.344;6.240;2023-04-01T17:57:50;9.40;99.90
31837;DHT22;18401;49.344;6.240;2023-04-01T18:00:30;9.30;99.90
31837;DHT22;18401;49.344;6.240;2023-04-01T18:14:26;9.20;99.90
31837;DHT22;18401;49.344;6.240;2023-04-01T18:17:18;9.30;99.90
31837;DHT22;18401;49.344;6.240;2023-04-01T18:19:57;9.30;99.90
31837;DHT22;18401;49.344;6.240;2023-04-01T18:22:39;9.30;99.90
31837;DHT22;18401;49.344;6.240;2023-04-01T18:28:11;9.20;99.90
31837;DHT22;18401;49.344;6.240;2023-04-01T18:30:39;9.30;99.90
31837;DHT22;18401;49.344;6.240;2023-04-01T18:33:32;9.20;99.90
31837;DHT22;18401;49.344;6.240;2023-04-01T18:36:07;9.20;99.90
31837;DHT22;18401;49.344;6.240;2023-04-01T18:38:37;9.30;99.90
31837;DHT22;18401;49.344;6.240;2023-04-01T18:41:20;9.20;99.90
31837;DHT22;18401;49.344;6.240;2023-04-01T18:44:16;9.20;99.90
31837;DHT22;18401;49.344;6.240;2023-04-01T18:52:38;9.20;99.90
31837;DHT22;18401;49.344;6.240;2023-04-01T18:55:37;9.10;99.90
31837;DHT22;18401;49.344;6.240;2023-04-01T18:58:32;9.20;99.90
31837;DHT22;18401;49.344;6.240;2023-04-01T19:01:07;9.20;99.90
31837;DHT22;18401;49.344;6.240;2023-04-01T19:03:54;9.10;99.90
31837;DHT22;18401;49.344;6.240;2023-04-01T19:08:47;9.20;99.90
31837;DHT22;18401;49.344;6.240;2023-04-01T19:11:35;9.20;99.90
31837;DHT22;18401;49.344;6.240;2023-04-01T19:17:44;9.30;99.90
31837;DHT22;18401;49.344;6.240;2023-04-01T19:20:53;9.20;99.90
31837;DHT22;18401;49.344;6.240;2023-04-01T19:26:05;9.20;99.90
31837;DHT22;18401;49.344;6.240;2023-04-01T19:29:38;9.20;99.90
31837;DHT22;18401;49.344;6.240;2023-04-01T19:37:40;9.10;99.90
31837;DHT22;18401;49.344;6.240;2023-04-01T19:40:25;9.10;99.90
31837;DHT22;18401;49.344;6.240;2023-04-01T19:43:14;9.10;99.90
31837;DHT22;18401;49.344;6.240;2023-04-01T19:46:10;9.10;99.90
31837;DHT22;18401;49.344;6.240;2023-04-01T19:59:52;8.90;99.90
31837;DHT22;18401;49.344;6.240;2023-04-01T20:02:31;8.90;99.90
31837;DHT22;18401;49.344;6.240;2023-04-01T20:05:04;8.90;99.90
31837;DHT22;18401;49.344;6.240;2023-04-01T20:07:45;8.90;99.90
31837;DHT22;18401;49.344;6.240;2023-04-01T20:10:24;8.90;99.90
31837;DHT22;18401;49.344;6.240;2023-04-01T20:13:10;8.90;99.90
31837;DHT22;18401;49.344;6.240;2023-04-01T20:15:40;8.80;99.90
31837;DHT22;18401;49.344;6.240;2023-04-01T20:18:47;8.80;99.90
31837;DHT22;18401;49.344;6.240;2023-04-01T20:23:50;9.00;99.90
31837;DHT22;18401;49.344;6.240;2023-04-01T20:26:22;9.00;99.90
31837;DHT22;18401;49.344;6.240;2023-04-01T20:29:23;9.00;99.90
31837;DHT22;18401;49.344;6.240;2023-04-01T20:32:04;8.90;99.90
31837;DHT22;18401;49.344;6.240;2023-04-01T20:43:13;8.80;99.90
31837;DHT22;18401;49.344;6.240;2023-04-01T20:46:01;8.70;99.90
31837;DHT22;18401;49.344;6.240;2023-04-01T20:48:59;8.70;99.90
31837;DHT22;18401;49.344;6.240;2023-04-01T20:51:32;8.80;99.90
31837;DHT22;18401;49.344;6.240;2023-04-01T20:57:14;8.70;99.90
31837;DHT22;18401;49.344;6.240;2023-04-01T21:02:21;8.70;99.90
31837;DHT22;18401;49.344;6.240;2023-04-01T21:13:31;8.90;99.90
31837;DHT22;18401;49.344;6.240;2023-04-01T21:21:57;8.90;99.90
31837;DHT22;18401;49.344;6.240;2023-04-01T21:24:38;8.90;99.90
31837;DHT22;18401;49.344;6.240;2023-04-01T21:27:34;9.00;99.90
31837;DHT22;18401;49.344;6.240;2023-04-01T21:44:20;8.80;99.90
31837;DHT22;18401;49.344;6.240;2023-04-01T21:47:02;8.70;99.90
31837;DHT22;18401;49.344;6.240;2023-04-01T21:55:42;8.80;99.90
31837;DHT22;18401;49.344;6.240;2023-04-01T21:58:39;8.80;99.90
31837;DHT22;18401;49.344;6.240;2023-04-01T22:10:18;8.90;99.90
31837;DHT22;18401;49.344;6.240;2023-04-01T22:12:52;8.90;99.90
31837;DHT22;18401;49.344;6.240;2023-04-01T22:18:33;8.90;99.90
31837;DHT22;18401;49.344;6.240;2023-04-01T22:26:43;8.80;99.90
31837;DHT22;18401;49.344;6.240;2023-04-01T22:32:05;8.80;99.90
31837;DHT22;18401;49.344;6.240;2023-04-01T22:45:44;8.60;99.90
31837;DHT22;18401;49.344;6.240;2023-04-01T22:48:18;8.60;99.90
31837;DHT22;18401;49.344;6.240;2023-04-01T22:50:56;8.60;99.90
31837;DHT22;18401;49.344;6.240;2023-04-01T22:56:23;8.60;99.90
31837;DHT22;18401;49.344;6.240;2023-04-01T22:59:10;8.60;99.90
31837;DHT22;18401;49.344;6.240;2023-04-01T23:01:46;8.50;99.90
31837;DHT22;18401;49.344;6.240;2023-04-01T23:04:16;8.50;99.90
31837;DHT22;18401;49.344;6.240;2023-04-01T23:06:54;8.50;99.90
31837;DHT22;18401;49.344;6.240;2023-04-01T23:09:23;8.50;99.90
31837;DHT22;18401;49.344;6.240;2023-04-01T23:12:05;8.40;99.90
31837;DHT22;18401;49.344;6.240;2023-04-01T23:14:41;8.50;99.90
31837;DHT22;18401;49.344;6.240;2023-04-01T23:17:24;8.40;99.90
31837;DHT22;18401;49.344;6.240;2023-04-01T23:20:15;8.30;99.90
31837;DHT22;18401;49.344;6.240;2023-04-01T23:35:50;8.30;99.90
31837;DHT22;18401;49.344;6.240;2023-04-01T23:38:17;8.30;99.90
31837;DHT22;18401;49.344;6.240;2023-04-01T23:40:43;8.30;99.90
31837;DHT22;18401;49.344;6.240;2023-04-01T23:45:48;8.30;99.90
31837;DHT22;18401;49.344;6.240;2023-04-01T23:48:16;8.30;99.90
31837;DHT22;18401;49.344;6.240;2023-04-01T23:50:43;8.30;99.90
31837;DHT22;18401;49.344;6.240;2023-04-01T23:53:33;8.30;99.90
31837;DHT22;18401;49.344;6.240;2023-04-01T23:56:00;8.30;99.90
31837;DHT22;18401;49.344;6.240;2023-04-01T23:58:50;8.20;99.90
